Time;durP1;ratioP1;P1;durP2;ratioP2;P2;SDS_P1;SDS_P2;PMS_P1;PMS_P2;Temp;Humidity;BMP_temperature;BMP_pressure;BME280_temperature;BME280_humidity;BME280_pressure;Samples;Min_cycle;Max_cycle;Signal;HPM_P1;HPM_P2
2022/05/05 00:02:07;;;;;;;12.10;7.43;;;;;;;15.63;61.26;101571.75;4981079;28;20667;-61
2022/05/05 00:04:35;;;;;;;11.63;7.93;;;;;;;15.49;61.92;101573.88;5014692;28;20054;-62
2022/05/05 00:07:03;;;;;;;12.98;8.13;;;;;;;15.12;63.11;101576.38;5012280;28;20053;-62
2022/05/05 00:09:31;;;;;;;11.55;8.23;;;;;;;15.28;62.66;101572.84;5009932;28;20050;-61
2022/05/05 00:14:45;;;;;;;11.93;7.93;;;;;;;15.32;62.20;101573.00;4999166;28;20054;-61
2022/05/05 00:17:12;;;;;;;14.77;8.80;;;;;;;14.82;64.34;101586.41;5019986;28;20508;-60
2022/05/05 00:19:41;;;;;;;11.02;8.05;;;;;;;14.90;64.45;101582.03;5010486;28;20049;-62
2022/05/05 00:22:10;;;;;;;13.18;8.40;;;;;;;14.82;64.11;101583.63;4977582;28;20050;-62
2022/05/05 00:24:38;;;;;;;13.55;8.73;;;;;;;14.54;64.86;101574.72;5010291;28;20061;-61
2022/05/05 00:27:06;;;;;;;12.80;8.15;;;;;;;14.41;65.46;101578.41;5016906;28;20041;-61
2022/05/05 00:29:35;;;;;;;13.13;8.52;;;;;;;14.39;65.45;101577.06;4996231;28;20069;-61
2022/05/05 00:32:02;;;;;;;11.02;8.32;;;;;;;14.40;65.83;101587.03;4987924;28;20049;-60
2022/05/05 00:34:30;;;;;;;12.90;7.97;;;;;;;14.44;65.00;101585.25;4996223;28;20508;-62
2022/05/05 00:36:57;;;;;;;15.95;8.23;;;;;;;13.90;66.36;101579.97;5003707;28;20054;-61
2022/05/05 00:39:24;;;;;;;15.30;8.32;;;;;;;13.80;67.11;101583.84;5014170;28;20072;-61
2022/05/05 00:41:52;;;;;;;12.45;8.15;;;;;;;13.94;66.87;101578.22;5003091;28;20492;-60
2022/05/05 00:44:19;;;;;;;11.65;7.25;;;;;;;14.18;66.55;101584.25;4975586;28;20057;-61
2022/05/05 00:46:51;;;;;;;9.80;7.55;;;;;;;14.43;64.91;101578.09;5006905;28;20065;-61
2022/05/05 00:49:18;;;;;;;11.35;7.72;;;;;;;14.15;65.77;101585.72;4967389;28;20497;-60
2022/05/05 00:51:46;;;;;;;9.50;6.68;;;;;;;14.09;65.98;101586.16;5024879;28;20053;-61
2022/05/05 00:54:13;;;;;;;10.80;7.03;;;;;;;14.31;64.96;101586.19;4983456;28;20057;-61
2022/05/05 00:56:44;;;;;;;11.15;7.32;;;;;;;13.62;66.41;101587.56;4991484;28;20065;-61
2022/05/05 00:59:11;;;;;;;12.45;7.30;;;;;;;13.33;67.54;101587.16;5011828;28;20057;-65
2022/05/05 01:01:39;;;;;;;10.23;6.88;;;;;;;13.39;67.28;101581.19;5003042;28;20065;-60
2022/05/05 01:04:10;;;;;;;11.05;7.05;;;;;;;13.39;67.32;101581.19;5025056;28;20065;-62
2022/05/05 01:06:38;;;;;;;10.25;6.70;;;;;;;13.28;68.14;101578.97;5006809;28;20057;-61
2022/05/05 01:09:06;;;;;;;11.00;6.47;;;;;;;13.40;67.27;101588.38;4980808;28;20061;-62
2022/05/05 01:11:35;;;;;;;10.68;6.53;;;;;;;13.42;67.41;101582.53;4995672;28;20054;-61
2022/05/05 01:14:03;;;;;;;10.25;6.22;;;;;;;13.58;66.02;101590.16;4978601;28;20054;-61
2022/05/05 01:16:34;;;;;;;9.23;6.07;;;;;;;13.41;67.07;101591.94;4989669;28;20046;-63
2022/05/05 01:19:04;;;;;;;10.10;6.15;;;;;;;13.49;65.81;101588.44;4983949;28;20061;-61
2022/05/05 01:21:34;;;;;;;9.32;5.53;;;;;;;13.38;66.36;101592.56;5013169;28;20061;-61
2022/05/05 01:24:01;;;;;;;10.30;6.25;;;;;;;13.19;67.19;101594.66;4990863;28;20057;-67
2022/05/05 01:29:15;;;;;;;8.95;5.55;;;;;;;13.14;67.43;101592.00;5017133;28;20442;-67
2022/05/05 01:31:44;;;;;;;8.45;6.28;;;;;;;13.32;66.56;101597.38;5007672;28;20501;-67
2022/05/05 01:34:11;;;;;;;9.68;5.40;;;;;;;13.12;67.93;101592.31;4999502;28;20072;-61
2022/05/05 01:36:39;;;;;;;9.27;5.40;;;;;;;13.38;67.44;101584.28;5001302;28;20045;-61
2022/05/05 01:39:06;;;;;;;7.70;5.20;;;;;;;13.59;66.83;101585.44;5005505;28;20062;-60
2022/05/05 01:41:36;;;;;;;8.90;5.97;;;;;;;13.48;66.43;101586.78;5015041;28;20053;-62
2022/05/05 01:44:03;;;;;;;8.38;5.28;;;;;;;13.70;65.86;101581.31;5017008;28;20057;-61
2022/05/05 01:46:31;;;;;;;10.43;5.68;;;;;;;13.40;66.28;101588.38;4999533;28;20037;-62
2022/05/05 01:48:58;;;;;;;8.27;5.43;;;;;;;13.15;67.04;101580.63;4980448;28;20069;-67
2022/05/05 01:51:25;;;;;;;9.00;5.68;;;;;;;13.35;66.43;101585.69;5004309;28;20049;-67
2022/05/05 01:53:53;;;;;;;8.85;5.45;;;;;;;12.83;68.18;101589.00;5016697;28;20058;-67
2022/05/05 01:56:21;;;;;;;8.50;5.35;;;;;;;13.02;67.70;101580.66;4999942;28;20046;-66
2022/05/05 01:58:48;;;;;;;8.65;5.22;;;;;;;12.98;68.22;101591.47;5019043;28;20053;-67
2022/05/05 02:01:15;;;;;;;9.52;5.65;;;;;;;12.94;68.44;101584.09;4983461;28;20382;-67
2022/05/05 02:03:43;;;;;;;9.48;5.53;;;;;;;13.16;67.11;101586.97;5016842;28;20052;-68
2022/05/05 02:06:10;;;;;;;10.10;5.82;;;;;;;13.36;66.91;101583.75;4993096;28;20062;-67
2022/05/05 02:08:37;;;;;;;8.43;5.22;;;;;;;13.43;66.42;101584.16;5010551;28;20412;-67
2022/05/05 02:11:05;;;;;;;7.75;5.90;;;;;;;13.45;66.38;101587.44;5003527;28;20046;-68
2022/05/05 02:13:32;;;;;;;10.20;5.53;;;;;;;13.58;65.85;101597.66;4986539;28;20054;-68
2022/05/05 02:15:59;;;;;;;7.90;5.65;;;;;;;13.86;64.95;101590.06;5009439;28;20485;-67
2022/05/05 02:18:27;;;;;;;8.88;6.07;;;;;;;13.85;64.85;101592.00;5013472;28;20048;-68
2022/05/05 02:20:55;;;;;;;10.82;7.43;;;;;;;13.41;66.29;101589.16;5015988;28;20050;-67
2022/05/05 02:23:23;;;;;;;10.88;7.60;;;;;;;13.42;67.17;101583.31;4990369;28;20076;-61
2022/05/05 02:25:50;;;;;;;14.38;7.95;;;;;;;13.60;66.63;101583.50;5004277;28;20061;-61
2022/05/05 02:28:18;;;;;;;10.48;8.23;;;;;;;13.54;66.47;101593.88;4998427;28;20121;-62
2022/05/05 02:30:45;;;;;;;15.82;8.65;;;;;;;13.18;67.82;101585.53;5016468;28;20053;-61
2022/05/05 02:33:12;;;;;;;13.80;8.15;;;;;;;13.10;68.56;101582.66;4998833;28;20049;-60
2022/05/05 02:35:40;;;;;;;13.93;8.95;;;;;;;13.35;68.37;101579.38;5021469;28;20535;-61
2022/05/05 02:40:53;;;;;;;13.50;9.27;;;;;;;13.55;67.82;101585.25;5009261;28;20050;-62
2022/05/05 02:43:20;;;;;;;15.43;9.30;;;;;;;13.57;67.63;101580.22;5001362;28;20050;-60
2022/05/05 02:45:49;;;;;;;14.20;9.90;;;;;;;13.73;67.39;101577.09;5013622;28;20060;-60
2022/05/05 02:48:16;;;;;;;12.93;9.15;;;;;;;13.81;67.15;101574.38;5007687;28;20072;-61
2022/05/05 02:50:43;;;;;;;14.90;9.27;;;;;;;13.62;68.02;101575.69;5002975;28;20060;-66
2022/05/05 02:55:57;;;;;;;15.77;9.90;;;;;;;13.70;68.50;101580.50;5006702;28;20050;-61
2022/05/05 02:58:28;;;;;;;15.32;9.98;;;;;;;13.96;67.76;101579.56;5000133;28;20092;-61
2022/05/05 03:00:55;;;;;;;14.98;10.30;;;;;;;13.84;67.65;101579.31;4998310;28;20061;-62
2022/05/05 03:03:23;;;;;;;13.23;9.55;;;;;;;13.77;68.24;101581.69;4981953;28;20050;-61
2022/05/05 03:05:50;;;;;;;16.77;10.07;;;;;;;13.66;68.59;101580.28;5015058;28;20058;-62
2022/05/05 03:08:17;;;;;;;17.63;10.07;;;;;;;13.68;68.85;101588.28;4997622;28;20054;-61
2022/05/05 03:10:45;;;;;;;15.65;9.45;;;;;;;13.76;68.44;101580.03;5022425;28;20469;-62
2022/05/05 03:13:12;;;;;;;17.13;10.45;;;;;;;13.42;69.72;101585.28;5016623;28;20046;-62
2022/05/05 03:15:39;;;;;;;15.77;9.90;;;;;;;13.60;69.09;101578.75;5015846;28;20053;-65
2022/05/05 03:18:07;;;;;;;15.05;9.80;;;;;;;12.92;71.78;101587.16;5015019;28;20061;-66
2022/05/05 03:20:34;;;;;;;16.30;9.82;;;;;;;12.62;74.13;101576.72;4998108;28;20046;-67
2022/05/05 03:23:02;;;;;;;16.27;10.32;;;;;;;12.84;73.48;101579.59;5003072;28;20050;-66
2022/05/05 03:25:30;;;;;;;17.85;10.05;;;;;;;13.14;72.35;101579.00;5015590;28;20064;-67
2022/05/05 03:27:57;;;;;;;17.08;10.20;;;;;;;13.31;71.62;101587.47;4996995;28;20057;-67
2022/05/05 03:30:24;;;;;;;16.83;10.75;;;;;;;13.46;70.97;101578.81;5020391;28;20058;-68
2022/05/05 03:32:51;;;;;;;15.20;10.05;;;;;;;13.32;71.10;101578.03;5015332;28;20057;-67
2022/05/05 03:35:20;;;;;;;13.45;9.60;;;;;;;13.30;71.18;101580.28;5020242;28;20056;-68
2022/05/05 03:37:47;;;;;;;14.50;10.27;;;;;;;13.17;71.58;101581.13;5015479;28;20053;-72
2022/05/05 03:40:14;;;;;;;15.10;10.55;;;;;;;13.14;71.68;101581.75;5015274;28;20382;-68
2022/05/05 03:42:42;;;;;;;18.52;10.77;;;;;;;13.06;71.85;101582.47;5015338;28;20046;-69
2022/05/05 03:45:09;;;;;;;14.82;10.15;;;;;;;13.07;71.42;101584.13;5015238;28;20050;-68
2022/05/05 03:47:36;;;;;;;16.95;10.18;;;;;;;13.17;71.39;101594.97;4998600;28;20058;-67
2022/05/05 03:50:04;;;;;;;15.48;9.85;;;;;;;13.20;71.10;101590.75;4984819;28;20066;-68
2022/05/05 03:52:31;;;;;;;15.02;10.27;;;;;;;13.22;71.06;101591.25;5012840;28;20045;-69
2022/05/05 03:54:59;;;;;;;15.18;10.27;;;;;;;13.15;70.92;101591.69;5002105;28;20520;-67
2022/05/05 03:57:26;;;;;;;12.95;9.15;;;;;;;13.33;70.46;101587.97;4994041;28;20719;-68
2022/05/05 03:59:53;;;;;;;18.73;10.73;;;;;;;13.19;71.10;101597.41;5022657;28;20053;-68
2022/05/05 04:02:21;;;;;;;16.48;10.23;;;;;;;12.86;71.65;101605.00;5014343;28;20053;-68
2022/05/05 04:04:48;;;;;;;17.30;10.60;;;;;;;12.99;71.76;101601.41;4993430;28;20065;-67
2022/05/05 04:07:16;;;;;;;14.82;9.75;;;;;;;13.20;71.33;101599.03;5003443;28;20050;-68
2022/05/05 04:09:48;;;;;;;14.48;9.70;;;;;;;13.27;70.58;101597.50;5012914;28;20053;-70
2022/05/05 04:12:16;;;;;;;12.80;8.98;;;;;;;13.14;71.15;101597.53;4997005;28;20053;-68
2022/05/05 04:14:43;;;;;;;13.48;9.63;;;;;;;13.12;70.87;101595.09;5014540;28;20053;-67
2022/05/05 04:17:36;;;;;;;16.58;10.15;;;;;;;13.05;71.56;101597.44;5014097;28;20058;-68
2022/05/05 04:20:05;;;;;;;13.73;9.45;;;;;;;13.32;70.84;101593.78;5000192;28;20152;-68
2022/05/05 04:22:33;;;;;;;12.95;9.60;;;;;;;13.01;71.38;101610.22;5025769;28;20416;-62
2022/05/05 04:25:00;;;;;;;16.55;9.32;;;;;;;12.63;73.43;101616.22;4989788;28;20417;-61
2022/05/05 04:27:28;;;;;;;15.10;9.95;;;;;;;12.35;74.46;101616.19;5008058;28;20053;-62
2022/05/05 04:29:55;;;;;;;17.33;10.23;;;;;;;11.94;76.35;101622.69;5003418;28;20505;-61
2022/05/05 04:32:23;;;;;;;17.45;11.40;;;;;;;11.76;78.35;101629.03;5011070;28;20049;-62
2022/05/05 04:34:51;;;;;;;15.18;11.07;;;;;;;11.48;79.65;101628.03;4984074;28;20050;-62
2022/05/05 04:37:22;;;;;;;17.17;11.35;;;;;;;11.63;79.69;101635.28;4989645;28;20078;-62
2022/05/05 04:39:49;;;;;;;16.95;11.35;;;;;;;11.65;80.25;101641.34;5005167;28;20086;-62
2022/05/05 04:42:17;;;;;;;16.77;10.30;;;;;;;11.50;80.87;101630.50;5003159;28;20041;-60
2022/05/05 04:44:44;;;;;;;16.65;11.27;;;;;;;11.68;80.89;101647.09;5025135;28;20062;-62
2022/05/05 04:47:11;;;;;;;20.50;11.80;;;;;;;11.66;80.49;101641.06;5014580;28;20061;-62
2022/05/05 04:49:39;;;;;;;19.50;13.50;;;;;;;11.49;81.02;101639.91;5014219;28;20532;-62
2022/05/05 04:52:06;;;;;;;22.08;13.75;;;;;;;11.26;82.74;101647.91;5009245;28;20050;-61
2022/05/05 04:54:33;;;;;;;20.88;13.88;;;;;;;11.37;83.62;101647.81;4994063;28;20061;-62
2022/05/05 04:57:01;;;;;;;21.17;13.60;;;;;;;11.58;82.86;101647.22;5017106;28;20585;-67
2022/05/05 04:59:29;;;;;;;23.42;15.50;;;;;;;11.75;81.45;101652.25;5001159;28;20061;-68
2022/05/05 05:01:59;;;;;;;21.00;14.63;;;;;;;11.54;82.76;101646.16;5003831;28;20069;-70
2022/05/05 05:04:26;;;;;;;;;;;;;;;11.50;82.84;101652.56;5016174;28;20428;-66
2022/05/05 05:06:53;;;;;;;25.15;15.65;;;;;;;11.42;84.58;101639.47;4991543;28;19922;-68
2022/05/05 05:09:21;;;;;;;20.35;14.75;;;;;;;11.67;83.54;101648.22;5012493;28;20061;-68
2022/05/05 05:11:48;;;;;;;22.98;16.02;;;;;;;11.60;83.07;101653.25;5025158;28;20408;-67
2022/05/05 05:14:15;;;;;;;26.70;15.65;;;;;;;11.62;83.75;101650.19;5031098;28;20528;-69
2022/05/05 05:16:42;;;;;;;25.10;15.45;;;;;;;11.54;84.03;101656.38;5017628;28;20057;-67
2022/05/05 05:19:10;;;;;;;23.05;15.80;;;;;;;11.69;84.33;101656.19;5007750;28;20054;-69
2022/05/05 05:21:44;;;;;;;24.88;16.33;;;;;;;11.93;83.21;101654.16;5017857;28;20057;-71
2022/05/05 05:24:12;;;;;;;22.30;15.73;;;;;;;12.06;82.54;101661.72;5017983;28;20274;-66
2022/05/05 05:26:40;;;;;;;25.15;16.13;;;;;;;12.52;80.95;101661.78;4999826;28;20049;-62
2022/05/05 05:29:07;;;;;;;26.13;16.23;;;;;;;12.29;80.65;101664.34;5017437;28;20046;-62
2022/05/05 05:31:34;;;;;;;28.48;17.90;;;;;;;11.80;83.71;101671.50;5018286;28;20053;-62
2022/05/05 05:34:02;;;;;;;30.40;19.38;;;;;;;11.96;84.39;101670.16;4999892;28;20046;-62
2022/05/05 05:36:29;;;;;;;31.35;19.75;;;;;;;12.04;84.07;101667.53;4998200;28;20050;-61
2022/05/05 05:38:56;;;;;;;33.65;21.40;;;;;;;11.52;86.08;101678.75;5017587;28;20065;-61
2022/05/05 05:41:23;;;;;;;34.63;21.30;;;;;;;11.57;87.52;101672.34;5017051;28;20049;-62
2022/05/05 05:43:51;;;;;;;31.67;19.52;;;;;;;11.91;85.95;101675.72;5016544;28;20058;-62
2022/05/05 05:46:18;;;;;;;31.33;19.10;;;;;;;12.28;85.14;101675.69;4995385;28;20054;-61
2022/05/05 05:48:45;;;;;;;31.40;20.75;;;;;;;11.86;85.08;101676.66;4979999;28;20062;-62
2022/05/05 05:51:13;;;;;;;32.58;20.90;;;;;;;11.63;86.96;101677.50;5010574;28;20050;-61
2022/05/05 05:53:41;;;;;;;29.48;20.23;;;;;;;11.93;86.45;101673.50;5005646;28;20050;-61
2022/05/05 05:56:08;;;;;;;34.85;21.10;;;;;;;11.90;86.84;101679.63;5006739;28;20424;-61
2022/05/05 05:58:37;;;;;;;33.33;20.88;;;;;;;12.20;85.74;101673.63;5014543;28;20124;-62
2022/05/05 06:01:06;;;;;;;29.65;19.05;;;;;;;12.61;85.70;101677.34;5015341;28;20520;-61
2022/05/05 06:06:23;;;;;;;34.53;19.08;;;;;;;12.94;82.99;101670.63;5026132;28;20061;-63
2022/05/05 06:08:51;;;;;;;32.50;19.00;;;;;;;12.93;83.33;101676.47;4983776;28;20058;-61
2022/05/05 06:11:19;;;;;;;30.42;18.85;;;;;;;13.13;82.98;101660.31;5015573;28;20046;-62
2022/05/05 06:13:49;;;;;;;33.10;19.95;;;;;;;13.31;81.28;101667.72;4995153;28;20050;-63
2022/05/05 06:16:19;;;;;;;29.23;19.55;;;;;;;13.29;80.09;101667.19;4992972;28;20058;-64
2022/05/05 06:19:33;;;;;;;31.42;19.38;;;;;;;13.54;79.19;101669.44;5011131;28;20214;-63
2022/05/05 06:22:17;;;;;;;29.70;17.90;;;;;;;13.48;79.79;101673.44;5007880;28;20050;-63
2022/05/05 06:24:51;;;;;;;29.38;17.85;;;;;;;13.42;79.24;101676.63;4987717;28;20054;-63
2022/05/05 06:27:23;;;;;;;25.83;17.65;;;;;;;13.41;77.83;101686.88;4999855;28;20038;-63
2022/05/05 06:30:05;;;;;;;27.27;18.10;;;;;;;13.47;76.98;101685.63;4993609;28;20056;-68
2022/05/05 06:32:32;;;;;;;26.80;18.33;;;;;;;13.25;77.76;101691.06;4997747;28;20058;-63
2022/05/05 06:34:59;;;;;;;30.88;19.33;;;;;;;12.92;78.64;101703.31;4997875;28;20381;-66
2022/05/05 06:37:26;;;;;;;32.15;21.02;;;;;;;12.25;83.51;101699.25;4988956;28;20421;-62
2022/05/05 06:39:54;;;;;;;32.28;17.55;;;;;;;12.75;85.79;101705.00;5012717;28;20153;-61
2022/05/05 06:42:22;;;;;;;35.20;19.45;;;;;;;13.08;84.49;101690.88;5014331;28;20073;-61
2022/05/05 06:44:50;;;;;;;27.67;18.10;;;;;;;13.03;83.65;101690.13;5009075;28;20050;-60
2022/05/05 06:47:18;;;;;;;30.10;19.27;;;;;;;13.11;83.00;101700.50;5011330;28;20050;-60
2022/05/05 06:49:45;;;;;;;29.98;19.25;;;;;;;13.13;81.90;101701.81;5010632;28;20440;-63
2022/05/05 06:52:13;;;;;;;27.20;18.30;;;;;;;13.20;80.09;101707.78;4987638;28;20049;-61
2022/05/05 06:55:00;;;;;;;31.90;20.40;;;;;;;13.01;81.26;101701.47;5008736;28;20054;-64
2022/05/05 06:57:27;;;;;;;29.45;20.02;;;;;;;12.87;82.68;101706.16;5013253;28;20057;-62
2022/05/05 06:59:54;;;;;;;31.70;20.02;;;;;;;12.73;82.60;101723.84;4982343;28;20054;-60
2022/05/05 07:02:22;;;;;;;32.40;20.95;;;;;;;12.73;83.69;101716.38;5011247;28;20045;-62
2022/05/05 07:07:35;;;;;;;34.30;20.50;;;;;;;12.81;82.35;101718.47;5010373;28;20077;-62
2022/05/05 07:12:48;;;;;;;32.35;20.10;;;;;;;12.72;83.03;101723.03;5012698;28;20053;-61
2022/05/05 07:15:16;;;;;;;32.03;21.27;;;;;;;13.08;83.10;101723.22;5013870;28;20525;-62
2022/05/05 07:17:43;;;;;;;29.80;20.05;;;;;;;13.40;81.02;101720.38;5009731;28;20052;-60
2022/05/05 07:20:10;;;;;;;27.13;19.85;;;;;;;13.16;80.62;101725.31;5006485;28;20058;-61
2022/05/05 07:22:38;;;;;;;28.67;18.90;;;;;;;13.21;82.39;101725.19;5001109;28;20065;-61
2022/05/05 07:25:06;;;;;;;27.33;19.10;;;;;;;13.48;80.57;101742.63;5011898;28;20050;-61
2022/05/05 07:27:33;;;;;;;31.13;20.88;;;;;;;13.24;79.95;101725.41;5008244;28;20057;-61
2022/05/05 07:30:01;;;;;;;30.13;20.48;;;;;;;12.86;82.54;101736.88;4999112;28;20038;-62
2022/05/05 07:32:28;;;;;;;31.58;18.75;;;;;;;13.09;81.77;101738.72;5012365;28;20135;-61
2022/05/05 07:35:00;;;;;;;35.03;18.48;;;;;;;13.05;80.69;101740.44;5006760;28;20056;-61
2022/05/05 07:37:27;;;;;;;29.65;18.17;;;;;;;13.04;81.46;101742.38;5009772;28;20054;-60
2022/05/05 07:39:54;;;;;;;26.35;17.80;;;;;;;13.15;80.97;101741.06;5004596;28;20393;-62
2022/05/05 07:42:21;;;;;;;27.05;18.08;;;;;;;13.74;78.08;101742.91;5014101;28;20524;-62
2022/05/05 07:44:49;;;;;;;25.40;18.10;;;;;;;13.03;78.94;101749.03;5016386;28;20053;-62
2022/05/05 07:47:17;;;;;;;25.08;17.90;;;;;;;12.72;81.41;101749.84;5012661;28;20046;-62
2022/05/05 07:49:44;;;;;;;26.17;17.83;;;;;;;12.83;82.00;101738.31;5010928;28;20613;-62
2022/05/05 07:52:11;;;;;;;22.33;16.60;;;;;;;13.35;80.29;101742.63;4984501;28;20053;-61
2022/05/05 07:54:39;;;;;;;27.65;17.88;;;;;;;13.62;78.44;101739.00;4989826;28;20081;-62
2022/05/05 07:57:08;;;;;;;25.73;16.73;;;;;;;13.65;77.15;101741.97;5014044;28;20061;-61
2022/05/05 07:59:36;;;;;;;25.25;16.48;;;;;;;13.79;76.38;101742.00;5016537;28;20050;-61
2022/05/05 08:02:04;;;;;;;23.67;16.98;;;;;;;13.51;77.54;101750.31;5010781;28;20126;-62
2022/05/05 08:04:32;;;;;;;23.17;16.60;;;;;;;13.67;76.53;101747.25;4986945;28;20042;-62
2022/05/05 08:07:00;;;;;;;21.98;15.93;;;;;;;13.86;75.66;101747.94;4996828;28;20061;-60
2022/05/05 08:09:27;;;;;;;27.08;17.05;;;;;;;13.54;75.60;101754.41;4989053;28;20057;-65
2022/05/05 08:12:15;;;;;;;24.88;16.80;;;;;;;13.78;75.96;101752.25;5006047;28;20056;-62
2022/05/05 08:14:42;;;;;;;25.77;16.98;;;;;;;13.97;75.07;101750.16;4977735;28;20505;-62
2022/05/05 08:17:09;;;;;;;20.20;16.27;;;;;;;14.30;73.94;101745.25;5012111;28;20054;-61
2022/05/05 08:19:41;;;;;;;24.58;15.82;;;;;;;14.77;71.94;101752.97;5001970;28;20054;-66
2022/05/05 08:22:09;;;;;;;23.83;15.95;;;;;;;13.99;73.49;101747.91;5011010;28;20404;-60
2022/05/05 08:30:08;;;;;;;22.90;15.32;;;;;;;14.52;72.64;101742.53;5003200;28;20055;-61
2022/05/05 08:32:35;;;;;;;23.35;16.60;;;;;;;14.59;71.98;101754.00;4995041;28;20061;-62
2022/05/05 08:35:03;;;;;;;24.65;17.00;;;;;;;14.01;73.01;101753.13;5001486;28;20058;-62
2022/05/05 08:37:30;;;;;;;27.83;16.02;;;;;;;14.35;73.33;101759.00;5011308;28;20050;-61
2022/05/05 08:39:57;;;;;;;31.02;15.10;;;;;;;14.38;72.52;101752.84;4983040;28;20137;-64
2022/05/05 08:42:26;;;;;;;19.98;14.65;;;;;;;14.93;71.14;101761.72;5024376;28;20054;-64
2022/05/05 08:44:58;;;;;;;25.52;14.82;;;;;;;14.70;70.17;101757.34;4997224;28;20050;-62
2022/05/05 08:47:26;;;;;;;22.65;14.55;;;;;;;14.66;69.37;101765.47;4998530;28;20054;-68
2022/05/05 08:49:58;;;;;;;20.38;13.30;;;;;;;14.43;68.99;101770.19;4977329;28;20058;-62
2022/05/05 08:52:31;;;;;;;25.83;14.25;;;;;;;14.50;69.87;101769.75;4988002;28;20061;-62
2022/05/05 08:54:58;;;;;;;18.65;13.32;;;;;;;14.47;69.64;101767.59;4980776;28;20046;-64
2022/05/05 08:57:26;;;;;;;28.48;14.43;;;;;;;14.54;70.45;101770.72;4988435;28;20790;-67
2022/05/05 08:59:56;;;;;;;21.58;13.85;;;;;;;14.94;68.02;101778.03;5007264;28;20053;-68
2022/05/05 09:02:24;;;;;;;22.05;14.05;;;;;;;14.82;68.41;101779.78;4973591;28;20057;-66
2022/05/05 09:04:52;;;;;;;19.75;13.10;;;;;;;14.99;68.21;101771.56;4999122;28;20414;-62
2022/05/05 09:07:19;;;;;;;18.80;13.88;;;;;;;14.89;68.58;101771.81;5015446;28;20389;-64
2022/05/05 09:09:48;;;;;;;22.80;13.85;;;;;;;14.94;67.94;101774.47;4996504;28;20049;-66
2022/05/05 09:12:18;;;;;;;18.63;12.90;;;;;;;14.70;69.00;101771.22;5004584;28;20045;-63
2022/05/05 09:14:46;;;;;;;19.87;12.97;;;;;;;14.84;68.71;101767.22;5017422;28;20626;-64
2022/05/05 09:17:21;;;;;;;18.90;12.48;;;;;;;15.02;67.91;101773.69;4992898;28;20062;-64
2022/05/05 09:19:50;;;;;;;21.55;11.95;;;;;;;15.28;67.66;101772.69;4999506;28;20049;-63
2022/05/05 09:22:23;;;;;;;19.20;12.10;;;;;;;15.33;66.83;101768.94;5011742;28;20056;-63
2022/05/05 09:24:53;;;;;;;21.65;11.70;;;;;;;14.99;66.59;101764.06;4998344;28;20046;-63
2022/05/05 09:27:25;;;;;;;13.63;8.52;;;;;;;15.35;64.64;101775.00;5001489;28;20054;-63
2022/05/05 09:30:06;;;;;;;13.35;8.52;;;;;;;15.46;64.83;101768.06;5013557;28;20050;-63
2022/05/05 09:32:40;;;;;;;18.08;10.90;;;;;;;15.63;65.88;101762.56;5015030;28;20404;-63
2022/05/05 09:35:15;;;;;;;21.45;10.75;;;;;;;15.83;65.23;101761.16;4993683;28;20061;-63
2022/05/05 09:37:47;;;;;;;16.08;10.45;;;;;;;15.59;64.58;101773.50;5017336;28;20068;-62
2022/05/05 09:40:21;;;;;;;18.90;9.98;;;;;;;15.28;65.83;101772.69;5014973;28;20062;-64
2022/05/05 09:42:50;;;;;;;13.50;9.18;;;;;;;15.28;64.94;101778.25;4995366;28;20054;-64
2022/05/05 09:45:47;;;;;;;11.85;8.52;;;;;;;15.57;63.45;101774.94;4997233;28;20049;-64
2022/05/05 09:48:15;;;;;;;12.57;7.45;;;;;;;15.33;62.21;101771.72;5008073;28;20057;-65
2022/05/05 09:50:42;;;;;;;11.82;7.25;;;;;;;15.29;62.59;101774.31;4997396;28;20053;-65
2022/05/05 09:58:42;;;;;;;12.70;7.82;;;;;;;15.38;62.80;101771.59;4995873;28;20062;-64
2022/05/05 10:01:10;;;;;;;10.75;7.10;;;;;;;15.83;62.64;101764.75;4997515;28;20049;-64
2022/05/05 10:06:29;;;;;;;13.15;6.95;;;;;;;15.92;61.75;101770.34;5004004;28;20058;-65
2022/05/05 10:09:01;;;;;;;11.07;6.70;;;;;;;15.81;60.22;101764.28;5004057;28;20053;-64
2022/05/05 10:11:29;;;;;;;8.60;6.30;;;;;;;15.77;60.07;101766.88;4980069;28;20068;-64
2022/05/05 10:14:05;;;;;;;9.23;6.00;;;;;;;15.97;59.89;101776.53;5014715;28;20038;-64
2022/05/05 10:16:33;;;;;;;12.07;5.40;;;;;;;15.76;58.52;101776.34;4987643;28;20065;-64
2022/05/05 10:19:03;;;;;;;10.85;5.65;;;;;;;15.77;nan;101775.22;4991962;28;20436;-65
2022/05/05 10:21:36;;;;;;;8.30;5.00;;;;;;;16.16;57.75;101777.06;5016948;28;20049;-64
2022/05/05 10:24:12;;;;;;;9.98;5.50;;;;;;;15.96;57.90;101762.97;4997086;28;20648;-64
2022/05/05 10:26:39;;;;;;;7.45;4.95;;;;;;;15.88;57.39;101769.34;4977689;28;20425;-64
2022/05/05 10:29:32;;;;;;;8.60;4.90;;;;;;;15.89;56.94;101765.41;4989097;28;20063;-63
2022/05/05 10:32:06;;;;;;;12.02;4.72;;;;;;;15.86;57.25;101764.13;5013453;28;20049;-64
2022/05/05 10:34:34;;;;;;;16.25;5.90;;;;;;;15.72;57.83;101763.44;5016082;28;20054;-64
2022/05/05 10:37:09;;;;;;;12.10;5.95;;;;;;;15.89;58.20;101760.69;4995639;28;20057;-72
2022/05/05 10:40:04;;;;;;;8.80;5.30;;;;;;;15.64;58.41;101759.47;5012613;28;20531;-71
2022/05/05 10:42:40;;;;;;;14.32;5.38;;;;;;;15.91;58.76;101768.69;5014330;28;20064;-69
2022/05/05 10:45:31;;;;;;;11.75;6.68;;;;;;;15.95;58.11;101776.06;5001790;28;20053;-70
2022/05/05 10:48:06;;;;;;;10.77;5.40;;;;;;;15.76;57.86;101769.94;5013093;28;20053;-72
2022/05/05 10:50:54;;;;;;;9.60;4.82;;;;;;;15.76;57.76;101768.00;5013076;28;20160;-69
2022/05/05 10:53:37;;;;;;;8.60;5.50;;;;;;;16.12;57.09;101759.41;5008016;28;20058;-69
2022/05/05 10:56:26;;;;;;;9.77;5.05;;;;;;;16.05;56.79;101764.66;5014157;28;20061;-68
2022/05/05 10:58:57;;;;;;;15.40;5.22;;;;;;;16.37;56.71;101755.03;4982362;28;20060;-72
2022/05/05 11:01:30;;;;;;;8.80;4.80;;;;;;;17.14;55.19;101750.16;5011980;28;20076;-70
2022/05/05 11:04:17;;;;;;;10.38;5.55;;;;;;;17.27;53.80;101753.91;5012589;28;20053;-71
2022/05/05 11:06:48;;;;;;;12.70;5.80;;;;;;;17.12;53.51;101754.47;5007610;28;20046;-70
2022/05/05 11:09:32;;;;;;;10.07;4.70;;;;;;;16.80;54.13;101747.50;4996267;28;20058;-71
2022/05/05 11:12:19;;;;;;;10.18;3.88;;;;;;;16.44;50.56;101749.78;5013756;28;20405;-72
2022/05/05 11:23:46;;;;;;;7.72;3.28;;;;;;;16.11;53.06;101760.56;5003459;28;20053;-70
2022/05/05 11:26:17;;;;;;;7.57;2.90;;;;;;;16.08;53.87;101760.38;4989737;28;20050;-70
2022/05/05 11:28:45;;;;;;;7.72;2.90;;;;;;;16.16;54.17;101757.59;4999573;28;20491;-70
2022/05/05 11:31:28;;;;;;;6.90;3.25;;;;;;;16.29;53.96;101753.03;5014182;28;20060;-71
2022/05/05 11:33:58;;;;;;;6.15;3.42;;;;;;;16.63;53.92;101747.53;5012448;28;20045;-71
2022/05/05 11:36:29;;;;;;;7.28;3.17;;;;;;;16.63;53.73;101755.88;4985554;28;20058;-71
2022/05/05 11:38:57;;;;;;;7.13;3.50;;;;;;;16.70;53.41;101756.19;4999628;28;20064;-71
2022/05/05 11:41:26;;;;;;;9.95;3.60;;;;;;;16.49;54.13;101758.00;4980199;28;20049;-71
2022/05/05 11:46:40;;;;;;;5.70;3.38;;;;;;;16.92;53.15;101750.41;4990613;28;20049;-70
2022/05/05 11:49:08;;;;;;;7.75;3.15;;;;;;;16.48;53.93;101759.13;5013325;28;20395;-63
2022/05/05 11:51:36;;;;;;;7.63;3.40;;;;;;;16.50;54.71;101749.31;4988992;28;20058;-64
2022/05/05 11:54:10;;;;;;;7.10;3.17;;;;;;;16.46;53.53;101747.47;4995963;28;20050;-64
2022/05/05 11:56:44;;;;;;;7.18;3.65;;;;;;;16.51;53.41;101748.16;5009273;28;20057;-65
2022/05/05 12:02:29;;;;;;;9.57;4.15;;;;;;;16.95;52.38;101746.97;5013852;28;20054;-63
2022/05/05 12:04:58;;;;;;;7.65;2.70;;;;;;;16.71;52.28;101753.06;4978574;28;20051;-64
2022/05/05 12:07:27;;;;;;;5.32;2.20;;;;;;;16.70;51.97;101747.84;5009603;28;20050;-64
2022/05/05 12:09:56;;;;;;;11.52;2.90;;;;;;;16.82;51.92;101745.19;5006477;28;20062;-65
2022/05/05 12:12:27;;;;;;;5.78;3.03;;;;;;;16.82;51.89;101747.97;5006293;28;20488;-64
2022/05/05 12:15:01;;;;;;;4.60;2.30;;;;;;;16.56;52.31;101749.97;5005011;28;20054;-63